This is the latest recevied weather packets stored in our database for station/object KA6AKH-13. If no packets are shown the sender has not sent any weather packets the latest 10 day(s).
| Time | Temp. | Humidity | Pressure | Rain* | Wind** | Luminosity | Snow |
|---|---|---|---|---|---|---|---|
| 1778016367 | 28.89° C | 25% | 1008.7 hPa | 0 mm | - | - | - |
| 1778016085 | 28.89° C | 25% | 1008.7 hPa | 0 mm | - | - | - |
| 1778014825 | 28.89° C | 26% | 1008.8 hPa | 0 mm | - | - | - |
| 1778012395 | 29.44° C | 24% | 1008.7 hPa | 0 mm | - | - | - |
| 1778011766 | 30° C | 25% | 1008.9 hPa | 0 mm | - | - | - |
| 1778011136 | 30° C | 27% | 1008.9 hPa | 0 mm | - | - | - |
| 1778010535 | 30° C | 27% | 1009 hPa | 0 mm | - | - | - |
| 1778009335 | 29.44° C | 27% | 1009.3 hPa | 0 mm | - | - | - |
| 1778007506 | 29.44° C | 28% | 1009.8 hPa | 0 mm | - | - | - |
| 1778006878 | 29.44° C | 29% | 1010 hPa | 0 mm | - | - | - |
| 1778005781 | 29.44° C | 28% | 1010.4 hPa | 0 mm | - | - | - |
| 1778005616 | 29.44° C | 28% | 1010.4 hPa | 0 mm | - | - | - |
| 1778004416 | 28.89° C | 32% | 1010.7 hPa | 0 mm | - | - | - |
| 1778003785 | 28.89° C | 30% | 1010.7 hPa | 0 mm | - | - | - |
| 1778003155 | 28.89° C | 33% | 1010.8 hPa | 0 mm | - | - | - |
| 1778002525 | 29.44° C | 32% | 1010.8 hPa | 0 mm | - | - | - |
| 1778001987 | 28.89° C | 33% | 1010.8 hPa | 0 mm | - | - | - |
| 1778001925 | 28.89° C | 33% | 1010.8 hPa | 0 mm | - | - | - |
| 1778001295 | 28.89° C | 34% | 1011.1 hPa | 0 mm | - | - | - |
| 1778000667 | 28.33° C | 35% | 1011 hPa | 0 mm | - | - | - |
| 1778000611 | 27.78° C | 35% | 1011.2 hPa | 0 mm | - | - | - |
| 1778000035 | 27.78° C | 35% | 1011.2 hPa | 0 mm | - | - | - |
| 1777999438 | 27.78° C | 36% | 1011.3 hPa | 0 mm | - | - | - |
| 1777994485 | 23.89° C | 47% | 1012.3 hPa | 0 mm | - | - | - |
| 1777993887 | 23.89° C | 47% | 1012.2 hPa | 0 mm | - | - | - |
* Rain latest hour (hover to see other rain measurements)
** Current wind speed in m/s (hover to see current wind gust speed)